createdAt,value
2018-02-07T04:32:36.898Z,19.08
2018-02-07T04:35:04.661Z,18.45
2018-02-07T04:37:32.423Z,18.77
2018-02-07T04:40:00.295Z,20.83
2018-02-07T04:42:28.102Z,20.33
2018-02-07T04:44:56.735Z,20.17
2018-02-07T04:47:24.601Z,18.90
2018-02-07T04:49:52.306Z,19.58
2018-02-07T04:52:20.778Z,17.77
2018-02-07T04:54:49.333Z,19.17
2018-02-07T04:57:17.023Z,18.67
2018-02-07T04:59:45.468Z,19.42
2018-02-07T05:02:15.342Z,22.70
2018-02-07T05:04:43.147Z,20.85
2018-02-07T05:07:10.832Z,21.10
2018-02-07T05:09:39.327Z,21.23
2018-02-07T05:12:07.795Z,22.15
2018-02-07T05:14:36.241Z,23.50
2018-02-07T05:17:03.998Z,23.25
2018-02-07T05:19:31.711Z,20.80
2018-02-07T05:22:00.189Z,20.73
2018-02-07T05:24:28.711Z,20.95
2018-02-07T05:26:56.388Z,18.12
2018-02-07T05:29:24.068Z,19.98
2018-02-07T05:31:51.774Z,19.77
2018-02-07T05:34:19.475Z,19.80
2018-02-07T05:36:47.215Z,20.40
2018-02-07T05:39:14.896Z,20.20
2018-02-07T05:41:42.575Z,19.50
2018-02-07T05:44:10.302Z,21.52
2018-02-07T05:46:38.080Z,18.58
2018-02-07T05:49:05.841Z,18.15
2018-02-07T05:51:33.708Z,19.05
2018-02-07T05:54:01.410Z,19.73
2018-02-07T05:56:29.915Z,20.77
2018-02-07T05:58:57.599Z,19.40
2018-02-07T06:01:25.308Z,18.05
2018-02-07T06:03:53.838Z,16.80
2018-02-07T06:06:21.523Z,19.40
2018-02-07T06:08:49.208Z,19.12
2018-02-07T06:11:17.858Z,21.10
2018-02-07T06:13:45.621Z,19.10
2018-02-07T06:16:13.384Z,19.60
2018-02-07T06:18:41.253Z,21.00
2018-02-07T06:21:09.115Z,23.33
2018-02-07T06:23:36.980Z,20.55
2018-02-07T06:26:04.845Z,20.08
2018-02-07T06:28:32.558Z,20.40
2018-02-07T06:31:00.426Z,19.62
2018-02-07T06:33:28.146Z,18.23
2018-02-07T06:35:55.857Z,17.75
2018-02-07T06:38:23.600Z,17.30
2018-02-07T06:40:52.059Z,19.02
2018-02-07T06:43:19.758Z,17.65
2018-02-07T06:45:47.494Z,19.45
2018-02-07T06:48:15.195Z,19.48
2018-02-07T06:50:42.881Z,22.10
2018-02-07T06:53:11.411Z,21.37
2018-02-07T06:55:39.864Z,20.35
2018-02-07T06:58:07.546Z,18.92
2018-02-07T07:00:36.040Z,20.15
2018-02-07T07:03:03.749Z,18.80
2018-02-07T07:05:31.457Z,20.08
2018-02-07T07:08:00.168Z,18.67
2018-02-07T07:10:27.863Z,19.48
2018-02-07T07:12:55.573Z,17.55
2018-02-07T07:15:23.330Z,19.80
2018-02-07T07:17:51.034Z,18.08
2018-02-07T07:20:18.725Z,17.58
2018-02-07T07:22:46.454Z,20.50
2018-02-07T07:25:14.167Z,21.80
2018-02-07T07:27:42.775Z,21.48
2018-02-07T07:30:10.464Z,23.75
2018-02-07T07:32:38.915Z,23.67
2018-02-07T07:35:06.660Z,22.20
2018-02-07T07:37:35.111Z,21.15
2018-02-07T07:40:02.798Z,22.52
2018-02-07T07:42:31.299Z,23.62
2018-02-07T07:44:59.003Z,23.08
2018-02-07T07:47:26.717Z,23.35
2018-02-07T07:49:54.447Z,26.37
2018-02-07T07:52:22.150Z,25.58
2018-02-07T07:54:49.875Z,24.42
2018-02-07T07:57:18.371Z,26.58
2018-02-07T07:59:46.843Z,25.62
2018-02-07T08:02:15.315Z,25.00
2018-02-07T08:04:43.791Z,32.33
2018-02-07T08:07:11.499Z,39.78
2018-02-07T08:09:39.203Z,28.85
2018-02-07T08:12:06.919Z,32.58
2018-02-07T08:14:34.664Z,25.50
2018-02-07T08:17:02.348Z,24.60
2018-02-07T08:19:30.031Z,24.98
2018-02-07T08:21:57.787Z,24.12
2018-02-07T08:24:25.493Z,24.63
2018-02-07T08:26:53.956Z,25.20
2018-02-07T08:29:21.658Z,27.00
2018-02-07T08:31:49.339Z,25.40
2018-02-07T08:34:17.067Z,24.45
2018-02-07T08:36:44.787Z,25.15
2018-02-07T08:39:12.495Z,31.50
2018-02-07T08:41:40.239Z,35.10
2018-02-07T08:44:08.691Z,47.00
2018-02-07T08:46:36.395Z,25.92
2018-02-07T08:49:04.158Z,27.27
2018-02-07T08:51:31.865Z,27.75
2018-02-07T08:53:59.571Z,27.30
2018-02-07T08:56:28.067Z,25.15
2018-02-07T08:58:55.780Z,25.40
2018-02-07T09:01:23.494Z,41.22
2018-02-07T09:03:51.215Z,29.00
2018-02-07T09:06:18.919Z,28.30
2018-02-07T09:08:47.858Z,36.92
2018-02-07T09:11:16.464Z,29.25
2018-02-07T09:13:44.935Z,29.92
2018-02-07T09:16:12.622Z,30.10
2018-02-07T09:18:40.457Z,27.77
2018-02-07T09:21:08.199Z,28.42
2018-02-07T09:23:36.358Z,29.12
2018-02-07T09:26:04.870Z,29.45
2018-02-07T09:28:32.739Z,29.05
2018-02-07T09:31:02.398Z,28.98
2018-02-07T09:33:30.223Z,26.27
2018-02-07T09:35:58.691Z,29.45
2018-02-07T09:38:26.455Z,28.50
2018-02-07T09:40:54.162Z,25.75
2018-02-07T09:43:21.866Z,27.20
2018-02-07T09:45:49.599Z,26.60
2018-02-07T09:48:17.306Z,27.58
2018-02-07T09:50:45.826Z,29.33
2018-02-07T09:53:13.507Z,29.02
2018-02-07T09:55:41.189Z,30.30
2018-02-07T09:58:08.903Z,30.02
2018-02-07T10:00:36.587Z,27.60
2018-02-07T10:03:04.322Z,26.83
2018-02-07T10:05:32.055Z,29.65
2018-02-07T10:07:59.762Z,29.48
2018-02-07T10:10:27.455Z,29.52
2018-02-07T10:12:55.179Z,28.90
2018-02-07T10:15:22.866Z,27.92
2018-02-07T10:17:50.568Z,31.35
2018-02-07T10:20:19.082Z,27.75
2018-02-07T10:22:46.767Z,26.40
2018-02-07T10:25:14.470Z,29.37
2018-02-07T10:27:42.975Z,27.98
2018-02-07T10:30:10.694Z,29.83
2018-02-07T10:32:38.380Z,30.12
2018-02-07T10:35:06.918Z,31.20
2018-02-07T10:37:34.623Z,31.48
2018-02-07T10:40:03.091Z,30.30
2018-02-07T10:42:30.848Z,26.70
2018-02-07T10:44:58.533Z,25.27
2018-02-07T10:47:26.251Z,27.48
2018-02-07T10:49:53.987Z,25.00
2018-02-07T10:52:21.672Z,24.77
2018-02-07T10:54:49.380Z,24.08
2018-02-07T10:57:17.097Z,24.70
2018-02-07T10:59:44.779Z,23.10
2018-02-07T11:02:12.463Z,25.77
2018-02-07T11:04:41.019Z,25.23
2018-02-07T11:07:08.736Z,24.50
2018-02-07T11:09:36.432Z,24.90
2018-02-07T11:12:04.175Z,26.73
2018-02-07T11:14:31.879Z,26.50
2018-02-07T11:17:00.350Z,25.55
2018-02-07T11:19:28.078Z,24.77
2018-02-07T11:21:55.760Z,27.00
2018-02-07T11:24:23.540Z,26.20
2018-02-07T11:26:51.267Z,24.33
2018-02-07T11:29:18.979Z,26.87
2018-02-07T11:31:47.478Z,25.77
2018-02-07T11:34:15.159Z,28.00
2018-02-07T11:36:42.836Z,25.17
2018-02-07T11:39:10.582Z,26.48
2018-02-07T11:41:38.290Z,27.33
2018-02-07T11:44:05.990Z,26.73
2018-02-07T11:46:33.714Z,30.85
2018-02-07T11:49:01.418Z,29.65
2018-02-07T11:51:29.544Z,32.72
2018-02-07T11:53:57.223Z,33.45
2018-02-07T11:56:25.686Z,32.45
2018-02-07T11:58:53.416Z,31.98
2018-02-07T12:01:21.123Z,30.37
2018-02-07T12:03:49.566Z,32.95
2018-02-07T12:06:17.287Z,32.42
2018-02-07T12:08:44.991Z,32.80
2018-02-07T12:11:12.751Z,30.80
2018-02-07T12:13:40.459Z,29.55
2018-02-07T12:16:08.174Z,32.05
2018-02-07T12:18:35.925Z,33.08
2018-02-07T12:21:03.700Z,32.97
2018-02-07T12:23:31.398Z,34.40
2018-02-07T12:25:59.879Z,37.20
2018-02-07T12:28:28.339Z,38.45
2018-02-07T12:30:56.158Z,37.88
2018-02-07T12:33:23.842Z,34.78
2018-02-07T12:35:51.547Z,34.00
2018-02-07T12:38:20.043Z,37.08
2018-02-07T12:40:47.750Z,39.63
2018-02-07T12:43:15.509Z,36.15
2018-02-07T12:45:43.191Z,38.58
2018-02-07T12:48:10.891Z,40.97
2018-02-07T12:50:38.646Z,40.00
2018-02-07T12:53:06.331Z,39.13
2018-02-07T12:55:34.020Z,41.03
2018-02-07T12:58:01.763Z,38.05
2018-02-07T13:00:29.448Z,38.47
2018-02-07T13:02:57.131Z,40.22
2018-02-07T13:05:24.886Z,38.75
2018-02-07T13:07:52.728Z,39.72
2018-02-07T13:10:20.491Z,37.53
2018-02-07T13:12:48.360Z,42.05
2018-02-07T13:15:16.119Z,40.67
2018-02-07T13:17:43.882Z,43.97
2018-02-07T13:20:11.639Z,40.65
2018-02-07T13:22:39.325Z,40.72
2018-02-07T13:25:07.029Z,40.42
2018-02-07T13:27:37.238Z,42.65
2018-02-07T13:30:05.975Z,41.55
2018-02-07T13:32:33.838Z,49.63
2018-02-07T13:35:01.602Z,46.50
2018-02-07T13:37:29.367Z,50.58
2018-02-07T13:39:57.183Z,47.17
2018-02-07T13:42:24.915Z,47.75
2018-02-07T13:44:52.628Z,47.45
2018-02-07T13:47:20.386Z,44.83
2018-02-07T13:49:48.120Z,46.53
2018-02-07T13:52:16.591Z,46.60
2018-02-07T13:54:45.138Z,44.55
2018-02-07T13:57:12.850Z,43.55
2018-02-07T13:59:40.571Z,42.90
2018-02-07T14:02:08.337Z,40.45
2018-02-07T14:04:36.031Z,45.72
2018-02-07T14:07:04.479Z,42.62
2018-02-07T14:09:32.206Z,42.17
2018-02-07T14:11:59.915Z,41.03
2018-02-07T14:14:27.659Z,41.95
2018-02-07T14:16:55.371Z,40.88
2018-02-07T14:19:23.062Z,42.15
2018-02-07T14:21:50.791Z,39.15
2018-02-07T14:24:18.498Z,40.53
2018-02-07T14:26:46.187Z,39.42
2018-02-07T14:29:14.113Z,37.60
2018-02-07T14:31:41.844Z,42.55
2018-02-07T14:34:09.599Z,40.05
2018-02-07T14:36:38.071Z,39.97
2018-02-07T14:39:06.523Z,40.58
2018-02-07T14:41:34.376Z,38.40
2018-02-07T14:44:02.241Z,37.30
2018-02-07T14:46:30.003Z,36.00
2018-02-07T14:48:57.868Z,33.97
2018-02-07T14:51:25.733Z,34.53
2018-02-07T14:53:53.803Z,36.15
2018-02-07T14:56:21.669Z,33.53
2018-02-07T14:58:49.971Z,32.83
2018-02-07T15:01:18.862Z,30.58
2018-02-07T15:03:46.596Z,32.50
2018-02-07T15:06:14.275Z,31.73
2018-02-07T15:08:42.032Z,29.95
2018-02-07T15:11:09.739Z,29.37
2018-02-07T15:13:37.423Z,27.08
2018-02-07T15:16:05.198Z,28.58
2018-02-07T15:18:33.187Z,26.58
2018-02-07T15:21:00.964Z,28.62
2018-02-07T15:23:28.675Z,26.52
2018-02-07T15:25:56.378Z,25.50
2018-02-07T15:28:24.121Z,24.75
2018-02-07T15:30:51.856Z,24.92
2018-02-07T15:33:19.560Z,25.60
2018-02-07T15:35:47.411Z,25.65
2018-02-07T15:38:15.280Z,23.83
2018-02-07T15:40:44.170Z,25.25
2018-02-07T15:43:12.791Z,24.85
2018-02-07T15:45:41.432Z,24.12
2018-02-07T15:48:09.657Z,25.08
2018-02-07T15:50:37.470Z,28.20
2018-02-07T15:53:05.336Z,28.33
2018-02-07T15:55:33.098Z,27.05
2018-02-07T15:58:00.861Z,27.75
2018-02-07T16:00:29.240Z,28.10
2018-02-07T16:02:57.210Z,28.15
2018-02-07T16:05:25.995Z,28.73
2018-02-07T16:07:53.861Z,28.40
2018-02-07T16:10:21.623Z,27.37
2018-02-07T16:12:49.343Z,27.85
2018-02-07T16:15:17.148Z,27.05
2018-02-07T16:17:45.016Z,27.10
2018-02-07T16:20:12.778Z,29.60
2018-02-07T16:22:40.949Z,31.12
2018-02-07T16:25:08.650Z,27.95
2018-02-07T16:27:37.191Z,28.38
2018-02-07T16:30:05.159Z,31.95
2018-02-07T16:32:33.024Z,30.15
2018-02-07T16:35:00.890Z,30.02
2018-02-07T16:37:28.960Z,28.87
2018-02-07T16:39:57.645Z,29.08
2018-02-07T16:42:25.509Z,30.30
2018-02-07T16:44:53.272Z,30.25
2018-02-07T16:47:21.044Z,32.95
2018-02-07T16:49:48.799Z,31.40
2018-02-07T16:52:16.561Z,31.50
2018-02-07T16:54:44.531Z,32.97
2018-02-07T16:57:12.394Z,29.85
2018-02-07T16:59:40.157Z,31.85
2018-02-07T17:02:08.022Z,34.15
2018-02-07T17:04:35.786Z,33.38
2018-02-07T17:07:03.548Z,33.85
2018-02-07T17:09:31.414Z,34.78
2018-02-07T17:11:59.279Z,43.63
2018-02-07T17:14:27.042Z,44.33
2018-02-07T17:16:54.909Z,43.40
2018-02-07T17:19:22.816Z,36.63
2018-02-07T17:21:50.637Z,34.28
2018-02-07T17:24:18.345Z,35.25
2018-02-07T17:26:46.983Z,36.00
2018-02-07T17:29:14.849Z,32.75
2018-02-07T17:31:42.612Z,32.17
2018-02-07T17:34:10.477Z,36.13
2018-02-07T17:36:38.184Z,33.67
2018-02-07T17:39:06.822Z,36.60
2018-02-07T17:41:34.627Z,35.20
2018-02-07T17:44:03.166Z,34.65
2018-02-07T17:46:31.033Z,34.53
2018-02-07T17:48:58.897Z,36.72
2018-02-07T17:51:27.526Z,36.05
2018-02-07T17:53:55.391Z,35.80
2018-02-07T17:56:23.928Z,35.65
2018-02-07T17:58:51.689Z,31.87
2018-02-07T18:01:19.510Z,35.00
2018-02-07T18:03:47.318Z,36.97
2018-02-07T18:06:15.136Z,36.75
2018-02-07T18:08:43.049Z,34.80
2018-02-07T18:11:10.914Z,32.90
2018-02-07T18:13:38.779Z,35.00
2018-02-07T18:16:06.552Z,36.55
2018-02-07T18:18:34.362Z,39.17
2018-02-07T18:21:02.274Z,38.25
2018-02-07T18:23:30.143Z,36.05
2018-02-07T18:25:57.955Z,39.97
2018-02-07T18:28:25.691Z,37.63
2018-02-07T18:30:54.199Z,37.92
2018-02-07T18:33:21.891Z,37.10
2018-02-07T18:35:49.601Z,37.58
2018-02-07T18:38:18.119Z,41.20
2018-02-07T18:40:45.806Z,37.78
2018-02-07T18:43:14.267Z,40.50
2018-02-07T18:45:42.157Z,47.42
2018-02-07T18:48:10.278Z,56.67
2018-02-07T18:50:38.747Z,45.88
2018-02-07T18:53:07.237Z,54.65
2018-02-07T18:55:34.974Z,46.25
2018-02-07T18:58:02.667Z,47.83
2018-02-07T19:00:30.435Z,54.50
2018-02-07T19:02:58.135Z,49.83
2018-02-07T19:05:25.823Z,41.13
2018-02-07T19:07:53.575Z,39.33
2018-02-07T19:10:21.267Z,42.70
2018-02-07T19:12:49.733Z,50.78
2018-02-07T19:15:18.235Z,48.40
2018-02-07T19:17:45.928Z,46.15
2018-02-07T19:20:13.611Z,43.03
2018-02-07T19:22:41.343Z,41.58
2018-02-07T19:25:09.103Z,39.83
2018-02-07T19:27:36.787Z,39.80
2018-02-07T19:30:04.759Z,40.00
2018-02-07T19:32:33.266Z,40.38
2018-02-07T19:35:01.738Z,38.63
2018-02-07T19:37:29.454Z,40.67
2018-02-07T19:39:57.235Z,38.65
2018-02-07T19:42:24.958Z,40.30
2018-02-07T19:44:52.655Z,40.22
2018-02-07T19:47:20.398Z,37.25
2018-02-07T19:49:48.135Z,39.90
2018-02-07T19:52:15.850Z,40.30
2018-02-07T19:54:43.567Z,43.03
2018-02-07T19:57:11.286Z,40.85
2018-02-07T19:59:39.190Z,39.28
2018-02-07T20:02:07.428Z,38.45
2018-02-07T20:04:36.375Z,39.97
2018-02-07T20:07:04.446Z,41.53
2018-02-07T20:09:32.215Z,44.13
2018-02-07T20:12:00.317Z,44.42
2018-02-07T20:14:28.441Z,43.60
2018-02-07T20:16:56.688Z,40.15
2018-02-07T20:19:25.750Z,40.80
2018-02-07T20:21:54.125Z,41.17
2018-02-07T20:24:23.070Z,42.72
2018-02-07T20:26:51.077Z,40.72
2018-02-07T20:29:19.186Z,40.38
2018-02-07T20:31:47.167Z,43.50
2018-02-07T20:34:15.695Z,40.63
2018-02-07T20:36:43.763Z,39.97
2018-02-07T20:39:12.604Z,39.42
2018-02-07T20:41:40.960Z,42.22
2018-02-07T20:44:10.043Z,39.47
2018-02-07T20:46:38.193Z,39.10
2018-02-07T20:49:06.367Z,46.17
2018-02-07T20:51:35.271Z,41.60
2018-02-07T20:54:03.381Z,42.25
2018-02-07T20:56:31.246Z,41.90
2018-02-07T20:59:00.138Z,39.47
2018-02-07T21:01:28.335Z,41.10
2018-02-07T21:03:56.140Z,40.95
2018-02-07T21:06:24.331Z,41.15
2018-02-07T21:08:53.364Z,40.42
2018-02-07T21:11:21.701Z,39.90
2018-02-07T21:13:49.451Z,41.30
2018-02-07T21:16:17.652Z,41.28
2018-02-07T21:18:45.781Z,40.22
2018-02-07T21:21:14.303Z,41.97
2018-02-07T21:23:42.803Z,43.42
2018-02-07T21:26:10.520Z,42.60
2018-02-07T21:28:38.230Z,42.62
2018-02-07T21:31:05.979Z,42.88
2018-02-07T21:33:33.663Z,45.05
2018-02-07T21:36:01.356Z,43.78
2018-02-07T21:38:29.091Z,40.47
2018-02-07T21:40:56.775Z,42.67
2018-02-07T21:43:24.466Z,42.97
2018-02-07T21:45:52.949Z,42.88
2018-02-07T21:48:21.419Z,41.47
2018-02-07T21:50:49.126Z,42.88
2018-02-07T21:53:16.843Z,44.25
2018-02-07T21:55:44.527Z,44.30
2018-02-07T21:58:13.042Z,43.87
2018-02-07T22:00:40.727Z,44.42
2018-02-07T22:03:09.214Z,44.75
2018-02-07T22:05:36.971Z,41.88
2018-02-07T22:08:04.693Z,43.05
2018-02-07T22:10:32.380Z,42.62
2018-02-07T22:13:00.097Z,42.45
2018-02-07T22:15:27.806Z,44.20
2018-02-07T22:17:55.499Z,43.42
2018-02-07T22:20:24.003Z,43.70
2018-02-07T22:22:51.691Z,43.25
2018-02-07T22:25:19.458Z,42.90
2018-02-07T22:27:47.155Z,42.33
2018-02-07T22:30:14.848Z,40.78
2018-02-07T22:32:43.351Z,44.03
2018-02-07T22:35:11.058Z,42.03
2018-02-07T22:37:38.751Z,43.60
2018-02-07T22:40:07.375Z,42.70
2018-02-07T22:42:35.086Z,43.13
2018-02-07T22:45:03.539Z,42.10
2018-02-07T22:47:31.390Z,42.20
2018-02-07T22:49:59.253Z,46.20
2018-02-07T22:52:27.119Z,44.45
2018-02-07T22:54:54.984Z,41.22
2018-02-07T22:57:22.747Z,43.70
2018-02-07T22:59:50.454Z,43.20
2018-02-07T23:02:18.951Z,47.78
2018-02-07T23:04:46.647Z,45.92
2018-02-07T23:07:14.372Z,43.78
2018-02-07T23:09:42.095Z,43.65
2018-02-07T23:12:09.784Z,45.45
2018-02-07T23:14:38.259Z,45.05
2018-02-07T23:17:06.729Z,45.83
2018-02-07T23:19:35.185Z,47.38
2018-02-07T23:22:03.041Z,44.20
2018-02-07T23:24:30.802Z,44.70
2018-02-07T23:26:58.565Z,44.20
2018-02-07T23:29:26.327Z,43.35
